createdAt,value
2023-01-27T00:01:04.403Z,-3.46
2023-01-27T00:03:31.106Z,-3.43
2023-01-27T00:06:01.079Z,-3.58
2023-01-27T00:08:29.411Z,-3.27
2023-01-27T00:11:18.758Z,-4.01
2023-01-27T00:13:45.568Z,-3.37
2023-01-27T00:16:12.251Z,-3.35
2023-01-27T00:18:38.909Z,-3.73
2023-01-27T00:21:24.358Z,-3.46
2023-01-27T00:24:09.603Z,-3.39
2023-01-27T00:26:36.257Z,-3.35
2023-01-27T00:29:02.874Z,-3.51
2023-01-27T00:31:57.634Z,-3.28
2023-01-27T00:34:24.271Z,-3.50
2023-01-27T00:36:50.871Z,-3.67
2023-01-27T00:39:17.570Z,-3.43
2023-01-27T00:41:44.195Z,-3.38
2023-01-27T00:44:13.232Z,-3.69
2023-01-27T00:46:41.675Z,-3.47
2023-01-27T00:49:10.521Z,-3.58
2023-01-27T00:51:37.323Z,-3.64
2023-01-27T00:54:05.031Z,-3.66
2023-01-27T00:56:31.709Z,-3.35
2023-01-27T00:58:58.303Z,-3.54
2023-01-27T01:01:24.963Z,-3.50
2023-01-27T01:03:52.483Z,-3.63
2023-01-27T01:06:19.643Z,-3.65
2023-01-27T01:08:48.708Z,-3.72
2023-01-27T01:11:17.603Z,-3.39
2023-01-27T01:13:45.497Z,-3.62
2023-01-27T01:16:15.998Z,-3.28
2023-01-27T01:18:43.504Z,-3.28
2023-01-27T01:21:10.718Z,-3.61
2023-01-27T01:23:45.313Z,-3.28
2023-01-27T01:26:17.590Z,-3.49
2023-01-27T01:28:45.983Z,-3.35
2023-01-27T01:31:15.486Z,-3.38
2023-01-27T01:33:42.344Z,-3.65
2023-01-27T01:36:16.797Z,-3.44
2023-01-27T01:38:44.160Z,-3.50
2023-01-27T01:41:14.373Z,-3.51
2023-01-27T01:43:40.986Z,-3.80
2023-01-27T01:46:10.789Z,-3.40
2023-01-27T01:48:48.650Z,-3.60
2023-01-27T01:51:20.499Z,-3.34
2023-01-27T01:54:09.293Z,-3.40
2023-01-27T01:56:49.924Z,-3.34
2023-01-27T01:59:22.350Z,-3.47
2023-01-27T02:01:50.845Z,-3.39
2023-01-27T02:04:23.867Z,-3.34
2023-01-27T02:06:59.122Z,-3.48
2023-01-27T02:09:27.722Z,-3.57
2023-01-27T02:11:54.480Z,-3.70
2023-01-27T02:14:21.119Z,-3.33
2023-01-27T02:16:47.892Z,-3.47
2023-01-27T02:19:33.044Z,-3.35
2023-01-27T02:22:01.897Z,-3.34
2023-01-27T02:24:38.060Z,-3.60
2023-01-27T02:27:04.829Z,-3.54
2023-01-27T02:29:31.657Z,-3.76
2023-01-27T02:31:58.669Z,-3.35
2023-01-27T02:34:34.016Z,-3.54
2023-01-27T02:37:05.874Z,-3.67
2023-01-27T02:39:42.843Z,-3.80
2023-01-27T02:42:12.464Z,-3.45
2023-01-27T02:44:39.307Z,-3.74
2023-01-27T02:47:06.226Z,-3.66
2023-01-27T02:49:33.503Z,-3.60
2023-01-27T02:52:01.802Z,-3.54
2023-01-27T02:54:30.288Z,-3.52
2023-01-27T02:56:57.317Z,-3.32
2023-01-27T02:59:26.152Z,-3.69
2023-01-27T03:01:52.809Z,-3.64
2023-01-27T03:04:19.848Z,-3.51
2023-01-27T03:06:46.447Z,-3.91
2023-01-27T03:09:13.063Z,-3.35
2023-01-27T03:11:58.259Z,-3.64
2023-01-27T03:14:43.715Z,-3.65
2023-01-27T03:17:28.832Z,-3.64
2023-01-27T03:19:57.081Z,-3.71
2023-01-27T03:22:26.191Z,-3.53
2023-01-27T03:24:53.708Z,-3.47
2023-01-27T03:27:20.312Z,-3.62
2023-01-27T03:30:06.650Z,-3.49
2023-01-27T03:32:34.209Z,-3.71
2023-01-27T03:35:34.501Z,-3.42
2023-01-27T03:38:20.834Z,-3.63
2023-01-27T03:41:06.125Z,-3.48
2023-01-27T03:43:52.110Z,-3.31
2023-01-27T03:46:19.226Z,-3.45
2023-01-27T03:49:09.178Z,-3.40
2023-01-27T03:51:36.059Z,-3.49
2023-01-27T03:54:02.678Z,-3.68
2023-01-27T03:56:29.267Z,-3.37
2023-01-27T03:58:55.803Z,-3.61
2023-01-27T04:01:24.245Z,-3.41
2023-01-27T04:04:09.926Z,-3.36
2023-01-27T04:07:17.918Z,-3.46
2023-01-27T04:09:44.541Z,-3.50
2023-01-27T04:12:11.527Z,-3.52
2023-01-27T04:14:42.281Z,-3.42
2023-01-27T04:17:17.635Z,-3.65
2023-01-27T04:19:47.760Z,-3.52
2023-01-27T04:22:15.883Z,-3.34
2023-01-27T04:24:43.048Z,-3.38
2023-01-27T04:27:15.318Z,-3.47
2023-01-27T04:29:42.571Z,-3.65
2023-01-27T04:32:12.353Z,-3.48
2023-01-27T04:34:39.592Z,-3.41
2023-01-27T04:37:07.953Z,-3.83
2023-01-27T04:39:34.854Z,-3.65
2023-01-27T04:42:01.657Z,-3.55
2023-01-27T04:44:29.645Z,-3.82
2023-01-27T04:46:56.265Z,-3.71
2023-01-27T04:49:22.888Z,-3.60
2023-01-27T04:51:49.540Z,-3.52
2023-01-27T04:54:16.412Z,-3.47
2023-01-27T04:56:56.028Z,-3.49
2023-01-27T04:59:22.688Z,-3.75
2023-01-27T05:01:49.297Z,-3.71
2023-01-27T05:04:15.985Z,-3.73
2023-01-27T05:06:42.577Z,-3.52
2023-01-27T05:09:09.171Z,-3.60
2023-01-27T05:11:35.731Z,-3.75
2023-01-27T05:14:02.315Z,-3.93
2023-01-27T05:16:28.986Z,-3.83
2023-01-27T05:18:56.321Z,-3.79
2023-01-27T05:21:28.156Z,-3.52
2023-01-27T05:23:54.847Z,-3.94
2023-01-27T05:26:24.461Z,-3.72
2023-01-27T05:28:52.238Z,-3.74
2023-01-27T05:31:21.611Z,-3.77
2023-01-27T05:33:51.026Z,-3.67
2023-01-27T05:36:19.955Z,-3.72
2023-01-27T05:38:47.089Z,-4.48
2023-01-27T05:41:15.028Z,-3.65
2023-01-27T05:43:43.863Z,-3.62
2023-01-27T05:46:14.062Z,-3.79
2023-01-27T05:48:46.165Z,-3.66
2023-01-27T05:51:15.175Z,-3.73
2023-01-27T05:53:42.804Z,-4.15
2023-01-27T05:56:11.045Z,-3.69
2023-01-27T05:58:38.950Z,-3.63
2023-01-27T06:01:08.617Z,-3.63
2023-01-27T06:03:35.429Z,-3.91
2023-01-27T06:06:02.736Z,-3.98
2023-01-27T06:08:29.831Z,-3.55
2023-01-27T06:10:56.516Z,-3.59
2023-01-27T06:13:24.181Z,-3.57
2023-01-27T06:15:51.267Z,-3.73
2023-01-27T06:18:19.281Z,-3.49
2023-01-27T06:20:46.421Z,-3.57
2023-01-27T06:23:15.256Z,-3.53
2023-01-27T06:25:44.434Z,-3.60
2023-01-27T06:28:19.913Z,-3.57
2023-01-27T06:30:53.861Z,-3.68
2023-01-27T06:33:20.485Z,-3.72
2023-01-27T06:35:47.412Z,-3.76
2023-01-27T06:38:15.587Z,-3.79
2023-01-27T06:40:43.211Z,-4.17
2023-01-27T06:43:13.791Z,-3.53
2023-01-27T06:45:40.661Z,-3.90
2023-01-27T06:48:08.726Z,-3.63
2023-01-27T06:50:36.608Z,-4.27
2023-01-27T06:53:07.436Z,-3.95
2023-01-27T06:55:36.033Z,-3.88
2023-01-27T06:58:02.977Z,-3.63
2023-01-27T07:00:29.950Z,-3.61
2023-01-27T07:02:56.970Z,-3.55
2023-01-27T07:05:23.698Z,-3.59
2023-01-27T07:07:50.382Z,-3.77
2023-01-27T07:10:17.541Z,-3.83
2023-01-27T07:12:44.169Z,-3.64
2023-01-27T07:15:11.394Z,-3.60
2023-01-27T07:17:38.305Z,-3.59
2023-01-27T07:20:06.564Z,-3.75
2023-01-27T07:22:33.191Z,-3.89
2023-01-27T07:24:59.760Z,-3.61
2023-01-27T07:27:26.416Z,-3.60
2023-01-27T07:29:53.086Z,-3.85
2023-01-27T07:32:19.740Z,-3.50
2023-01-27T07:34:46.443Z,-3.66
2023-01-27T07:37:13.976Z,-3.65
2023-01-27T07:39:40.657Z,-3.73
2023-01-27T07:42:08.511Z,-3.46
2023-01-27T07:44:36.368Z,-3.59
2023-01-27T07:47:03.124Z,-3.38
2023-01-27T07:49:29.755Z,-3.52
2023-01-27T07:51:56.378Z,-3.27
2023-01-27T07:54:23.036Z,-3.37
2023-01-27T07:56:49.715Z,-3.63
2023-01-27T07:59:16.359Z,-3.52
2023-01-27T08:01:43.338Z,-3.43
2023-01-27T08:04:10.048Z,-5.14
2023-01-27T08:06:39.786Z,-3.34
2023-01-27T08:09:06.961Z,-3.28
2023-01-27T08:11:34.280Z,-3.28
2023-01-27T08:14:01.247Z,-3.35
2023-01-27T08:16:28.199Z,-3.36
2023-01-27T08:18:55.327Z,-3.42
2023-01-27T08:21:22.266Z,-3.61
2023-01-27T08:23:48.891Z,-3.18
2023-01-27T08:26:15.529Z,-3.17
2023-01-27T08:28:42.121Z,-3.51
2023-01-27T08:31:15.081Z,-3.37
2023-01-27T08:33:43.465Z,-3.09
2023-01-27T08:36:16.476Z,-3.15
2023-01-27T08:38:44.689Z,-2.93
2023-01-27T08:41:14.642Z,-3.13
2023-01-27T08:43:41.916Z,-2.87
2023-01-27T08:46:09.405Z,-2.67
2023-01-27T08:48:37.821Z,-2.86
2023-01-27T08:51:06.293Z,-2.98
2023-01-27T08:53:34.336Z,-2.77
2023-01-27T08:56:05.587Z,-2.81
2023-01-27T08:58:33.394Z,-3.02
2023-01-27T09:01:06.303Z,-2.88
2023-01-27T09:03:34.122Z,-3.12
2023-01-27T09:06:01.527Z,-2.75
2023-01-27T09:08:28.775Z,-2.89
2023-01-27T09:10:55.468Z,-2.88
2023-01-27T09:13:22.432Z,-3.16
2023-01-27T09:15:52.514Z,-2.78
2023-01-27T09:18:19.795Z,-2.81
2023-01-27T09:20:46.464Z,-2.73
2023-01-27T09:23:13.165Z,-3.00
2023-01-27T09:25:39.856Z,-2.57
2023-01-27T09:28:06.785Z,-2.95
2023-01-27T09:30:33.540Z,-2.78
2023-01-27T09:33:01.535Z,-2.98
2023-01-27T09:35:41.999Z,-2.86
2023-01-27T09:38:09.844Z,-2.81
2023-01-27T09:41:03.541Z,-2.98
2023-01-27T09:43:40.704Z,-2.80
2023-01-27T09:46:28.307Z,-2.74
2023-01-27T09:49:01.617Z,-2.63
2023-01-27T09:51:54.499Z,-2.80
2023-01-27T09:54:53.373Z,-2.86
2023-01-27T09:57:29.914Z,-2.84
2023-01-27T10:00:09.001Z,-2.76
2023-01-27T10:03:09.067Z,-3.00
2023-01-27T10:05:44.126Z,-2.77
2023-01-27T10:08:39.785Z,-2.53
2023-01-27T10:11:12.524Z,-2.58
2023-01-27T10:14:07.267Z,-2.64
2023-01-27T10:16:36.954Z,-2.49
2023-01-27T10:19:22.310Z,-2.38
2023-01-27T10:22:02.405Z,-2.50
2023-01-27T10:24:59.586Z,-2.43
2023-01-27T10:27:30.087Z,-2.26
2023-01-27T10:30:22.883Z,-2.26
2023-01-27T10:32:53.774Z,-2.31
2023-01-27T10:35:31.596Z,-2.34
2023-01-27T10:38:18.979Z,-2.38
2023-01-27T10:41:04.423Z,-2.22
2023-01-27T10:44:04.930Z,-2.22
2023-01-27T10:47:07.083Z,-2.30
2023-01-27T10:49:41.734Z,-2.59
2023-01-27T10:52:23.883Z,-2.33
2023-01-27T10:55:16.870Z,-2.47
2023-01-27T10:58:09.280Z,-2.34
2023-01-27T11:03:58.932Z,-2.19
2023-01-27T11:06:32.418Z,-2.27
2023-01-27T11:09:25.680Z,-2.06
2023-01-27T11:11:53.981Z,-2.08
2023-01-27T11:14:40.340Z,-2.16
2023-01-27T11:17:17.573Z,-2.14
2023-01-27T11:19:47.636Z,-2.18
2023-01-27T11:22:28.736Z,-2.23
2023-01-27T11:25:13.695Z,-2.33
2023-01-27T11:28:05.592Z,-2.21
2023-01-27T11:30:46.851Z,-2.34
2023-01-27T11:33:34.793Z,-2.41
2023-01-27T11:36:01.413Z,-2.34
2023-01-27T11:38:28.059Z,-2.46
2023-01-27T11:40:55.041Z,-2.06
2023-01-27T11:43:25.977Z,-2.13
2023-01-27T11:46:00.049Z,-2.03
2023-01-27T11:48:40.979Z,-2.38
2023-01-27T11:51:40.264Z,-1.98
2023-01-27T11:54:18.429Z,-1.97
2023-01-27T11:56:48.855Z,-1.85
2023-01-27T11:59:21.876Z,-2.23
2023-01-27T12:01:55.405Z,-1.83
2023-01-27T12:04:39.259Z,-1.77
2023-01-27T12:07:14.661Z,-2.30
2023-01-27T12:09:42.123Z,-1.95
2023-01-27T12:12:20.657Z,-1.95
2023-01-27T12:14:59.091Z,-1.87
2023-01-27T12:17:46.053Z,-2.08
2023-01-27T12:20:21.880Z,-1.88
2023-01-27T12:22:53.777Z,-2.05
2023-01-27T12:25:27.926Z,-1.76
2023-01-27T12:27:59.363Z,-1.90
2023-01-27T12:30:39.089Z,-2.15
2023-01-27T12:33:22.125Z,-1.72
2023-01-27T12:35:50.124Z,-1.71
2023-01-27T12:38:21.486Z,-1.92
2023-01-27T12:40:58.804Z,-1.67
2023-01-27T12:43:25.540Z,-1.99
2023-01-27T12:46:18.374Z,-1.75
2023-01-27T12:48:50.074Z,-1.97
2023-01-27T12:51:21.245Z,-2.15
2023-01-27T12:53:49.807Z,-1.95
2023-01-27T12:56:22.564Z,-1.97
2023-01-27T12:58:55.415Z,-1.94
2023-01-27T13:01:37.250Z,-1.90
2023-01-27T13:04:10.445Z,-2.00
2023-01-27T13:06:51.312Z,-1.81
2023-01-27T13:09:33.123Z,-1.98
2023-01-27T13:12:29.819Z,-1.90
2023-01-27T13:15:15.221Z,-1.94
2023-01-27T13:17:45.703Z,-1.99
2023-01-27T13:20:21.211Z,-1.81
2023-01-27T13:22:51.507Z,-1.91
2023-01-27T13:25:34.957Z,-1.87
2023-01-27T13:28:01.971Z,-1.97
2023-01-27T13:30:52.618Z,-2.09
2023-01-27T13:33:34.815Z,-1.87
2023-01-27T13:36:10.261Z,-1.92
2023-01-27T13:38:47.386Z,-1.87
2023-01-27T13:41:25.079Z,-1.74
2023-01-27T13:44:00.142Z,-1.82
2023-01-27T13:46:33.942Z,-1.85
2023-01-27T13:49:16.855Z,-2.08
2023-01-27T13:51:43.489Z,-1.85
2023-01-27T13:54:15.567Z,-1.84
2023-01-27T13:56:54.862Z,-1.98
2023-01-27T13:59:59.150Z,-1.93
2023-01-27T14:02:48.927Z,-1.80
2023-01-27T14:05:24.734Z,-1.96
2023-01-27T14:08:15.690Z,-2.13
2023-01-27T14:11:18.247Z,-2.16
2023-01-27T14:14:11.133Z,-1.92
2023-01-27T14:16:56.581Z,-1.98
2023-01-27T14:19:57.235Z,-1.98
2023-01-27T14:22:35.941Z,-1.98
2023-01-27T14:25:21.704Z,-1.94
2023-01-27T14:28:00.094Z,-2.09
2023-01-27T14:30:35.017Z,-2.08
2023-01-27T14:33:26.927Z,-2.10
2023-01-27T14:36:09.598Z,-2.33
2023-01-27T14:38:51.564Z,-2.46
2023-01-27T14:41:27.448Z,-2.28
2023-01-27T14:44:13.314Z,-2.19
2023-01-27T14:46:40.035Z,-2.29
2023-01-27T14:49:15.819Z,-2.29
2023-01-27T14:51:49.694Z,-2.52
2023-01-27T14:54:41.961Z,-2.50
2023-01-27T14:57:11.558Z,-2.33
2023-01-27T15:00:02.712Z,-2.38
2023-01-27T15:03:02.709Z,-2.48
2023-01-27T15:05:57.908Z,-2.46
2023-01-27T15:08:47.910Z,-2.38
2023-01-27T15:11:20.563Z,-2.43
2023-01-27T15:14:11.552Z,-2.57
2023-01-27T15:16:50.496Z,-2.48
2023-01-27T15:19:55.768Z,-2.66
2023-01-27T15:23:00.602Z,-2.45
2023-01-27T15:25:42.219Z,-2.54
2023-01-27T15:28:15.160Z,-2.65
2023-01-27T15:31:09.117Z,-2.47
2023-01-27T15:34:03.688Z,-2.52
2023-01-27T15:36:58.096Z,-2.68
2023-01-27T15:39:35.539Z,-2.59
2023-01-27T15:42:06.275Z,-2.54
2023-01-27T15:44:41.790Z,-2.91
2023-01-27T15:47:08.456Z,-2.51
2023-01-27T15:49:41.997Z,-2.49
2023-01-27T15:52:19.488Z,-2.48
2023-01-27T15:54:51.369Z,-2.92
2023-01-27T15:57:33.671Z,-2.86
2023-01-27T16:00:28.202Z,-2.53
2023-01-27T16:02:58.751Z,-2.93
2023-01-27T16:05:30.747Z,-2.72
2023-01-27T16:08:02.646Z,-2.57
2023-01-27T16:10:33.403Z,-2.49
2023-01-27T16:13:23.396Z,-2.53
2023-01-27T16:16:18.819Z,-2.51
2023-01-27T16:19:01.224Z,-2.54
2023-01-27T16:21:47.702Z,-2.53
2023-01-27T16:24:24.302Z,-2.88
2023-01-27T16:27:25.115Z,-2.52
2023-01-27T16:29:58.562Z,-2.73
2023-01-27T16:32:35.477Z,-2.64
2023-01-27T16:35:05.866Z,-2.40
2023-01-27T16:37:37.584Z,-2.51
2023-01-27T16:40:30.814Z,-2.44
2023-01-27T16:43:03.831Z,-2.67
2023-01-27T16:45:41.672Z,-2.59
2023-01-27T16:48:23.458Z,-2.55
2023-01-27T16:50:53.092Z,-2.65
2023-01-27T16:53:26.127Z,-2.72
2023-01-27T16:56:04.173Z,-2.75
2023-01-27T16:58:45.478Z,-2.47
2023-01-27T17:01:21.946Z,-2.40
2023-01-27T17:03:50.082Z,-2.61
2023-01-27T17:06:17.644Z,-2.51
2023-01-27T17:08:46.372Z,-2.41
2023-01-27T17:11:17.572Z,-2.31
2023-01-27T17:13:51.498Z,-2.41
2023-01-27T17:16:26.239Z,-2.40
2023-01-27T17:18:54.876Z,-2.45
2023-01-27T17:21:31.743Z,-2.52
2023-01-27T17:24:12.055Z,-2.46
2023-01-27T17:26:41.536Z,-2.50
2023-01-27T17:29:14.530Z,-2.61
2023-01-27T17:31:41.702Z,-2.51
2023-01-27T17:34:16.277Z,-2.55
2023-01-27T17:37:14.355Z,-2.40
2023-01-27T17:39:41.455Z,-2.35
2023-01-27T17:42:13.048Z,-2.44
2023-01-27T17:44:39.644Z,-2.51
2023-01-27T17:47:06.984Z,-2.49
2023-01-27T17:49:33.696Z,-2.70
2023-01-27T17:52:00.528Z,-2.52
2023-01-27T17:54:33.754Z,-2.42
2023-01-27T17:57:12.951Z,-2.57
2023-01-27T17:59:45.546Z,-2.30
2023-01-27T18:02:24.735Z,-2.47
2023-01-27T18:04:54.274Z,-2.32
2023-01-27T18:07:21.431Z,-2.41
2023-01-27T18:09:54.029Z,-2.49
2023-01-27T18:12:35.491Z,-2.33
2023-01-27T18:15:39.795Z,-2.36
2023-01-27T18:18:23.996Z,-2.70
2023-01-27T18:21:03.938Z,-2.44
2023-01-27T18:23:34.602Z,-2.78
2023-01-27T18:26:17.640Z,-2.52
2023-01-27T18:28:48.636Z,-2.32
2023-01-27T18:31:20.706Z,-2.54
2023-01-27T18:33:56.723Z,-2.38
2023-01-27T18:36:25.258Z,-2.39
2023-01-27T18:38:52.170Z,-2.35
2023-01-27T18:41:24.287Z,-2.37
2023-01-27T18:43:51.033Z,-2.48
2023-01-27T18:46:17.761Z,-2.52
2023-01-27T18:48:45.058Z,-2.49
2023-01-27T18:51:15.926Z,-2.25
2023-01-27T18:53:43.459Z,-2.29
2023-01-27T18:56:11.138Z,-2.22
2023-01-27T18:58:38.576Z,-2.48
2023-01-27T19:01:20.906Z,-2.28
2023-01-27T19:03:47.691Z,-2.52
2023-01-27T19:06:16.589Z,-2.27
2023-01-27T19:08:44.104Z,-2.28
2023-01-27T19:11:15.287Z,-2.37
2023-01-27T19:13:43.575Z,-2.40
2023-01-27T19:16:16.675Z,-2.22
2023-01-27T19:18:45.028Z,-2.54
2023-01-27T19:21:14.353Z,-2.36
2023-01-27T19:23:46.067Z,-2.48
2023-01-27T19:26:19.459Z,-2.22
2023-01-27T19:28:56.195Z,-2.21
2023-01-27T19:31:28.766Z,-2.33
2023-01-27T19:33:57.605Z,-2.21
2023-01-27T19:36:30.952Z,-2.42
2023-01-27T19:39:00.970Z,-2.19
2023-01-27T19:41:28.849Z,-2.06
2023-01-27T19:43:55.469Z,-2.08
2023-01-27T19:46:22.764Z,-2.31
2023-01-27T19:48:49.458Z,-2.11
2023-01-27T19:51:17.430Z,-2.18
2023-01-27T19:53:44.208Z,-2.04
2023-01-27T19:56:19.881Z,-2.06
2023-01-27T19:58:52.676Z,-2.05
2023-01-27T20:01:21.477Z,-1.98
2023-01-27T20:03:49.050Z,-2.17
2023-01-27T20:06:17.839Z,-2.00
2023-01-27T20:08:45.308Z,-2.32
2023-01-27T20:11:37.472Z,-2.08
2023-01-27T20:14:08.122Z,-2.00
2023-01-27T20:16:34.893Z,-2.81
2023-01-27T20:19:01.565Z,-2.25
2023-01-27T20:21:28.800Z,-2.00
2023-01-27T20:23:55.502Z,-2.20
2023-01-27T20:26:22.629Z,-2.02
2023-01-27T20:28:49.945Z,-2.07
2023-01-27T20:31:19.760Z,-2.06
2023-01-27T20:33:50.183Z,-1.99
2023-01-27T20:36:23.670Z,-2.06
2023-01-27T20:38:51.459Z,-2.18
2023-01-27T20:41:21.803Z,-2.06
2023-01-27T20:43:49.160Z,-2.27
2023-01-27T20:46:17.877Z,-2.06
2023-01-27T20:48:47.397Z,-2.04
2023-01-27T20:51:16.399Z,-2.45
2023-01-27T20:53:47.070Z,-2.13
2023-01-27T20:56:19.790Z,-2.07
2023-01-27T20:58:47.568Z,-2.11
2023-01-27T21:01:17.400Z,-2.18
2023-01-27T21:03:44.356Z,-2.00
2023-01-27T21:06:12.809Z,-1.94
2023-01-27T21:08:39.962Z,-1.98
2023-01-27T21:11:07.944Z,-1.96
2023-01-27T21:13:34.700Z,-2.13
2023-01-27T21:16:02.185Z,-1.96
2023-01-27T21:18:29.200Z,-2.23
2023-01-27T21:20:59.581Z,-1.90
2023-01-27T21:23:28.042Z,-2.15
2023-01-27T21:25:54.849Z,-1.99
2023-01-27T21:28:22.140Z,-2.29
2023-01-27T21:30:49.044Z,-2.40
2023-01-27T21:33:17.037Z,-2.18
2023-01-27T21:35:43.836Z,-2.11
2023-01-27T21:38:10.843Z,-2.10
2023-01-27T21:40:40.122Z,-2.48
2023-01-27T21:43:27.760Z,-2.23
2023-01-27T21:46:02.723Z,-1.99
2023-01-27T21:48:29.433Z,-2.14
2023-01-27T21:50:56.189Z,-2.34
2023-01-27T21:53:23.638Z,-2.39
2023-01-27T21:55:50.414Z,-2.11
2023-01-27T21:58:17.091Z,-2.36
2023-01-27T22:00:43.849Z,-2.33
2023-01-27T22:03:11.736Z,-2.23
2023-01-27T22:05:39.229Z,-2.35
2023-01-27T22:08:06.867Z,-2.26
2023-01-27T22:10:33.650Z,-2.14
2023-01-27T22:13:06.028Z,-2.20
2023-01-27T22:15:32.894Z,-2.15
2023-01-27T22:18:00.044Z,-2.03
2023-01-27T22:20:27.937Z,-1.98
2023-01-27T22:22:55.395Z,-1.93
2023-01-27T22:25:42.789Z,-1.91
2023-01-27T22:28:09.603Z,-1.97
2023-01-27T22:30:37.165Z,-1.97
2023-01-27T22:33:03.973Z,-2.17
2023-01-27T22:35:31.078Z,-2.13
2023-01-27T22:37:57.798Z,-2.04
2023-01-27T22:40:24.464Z,-2.09
2023-01-27T22:42:51.503Z,-1.94
2023-01-27T22:45:18.655Z,-2.55
2023-01-27T22:47:45.480Z,-2.15
2023-01-27T22:50:12.859Z,-2.01
2023-01-27T22:52:39.504Z,-2.15
2023-01-27T22:55:11.166Z,-2.03
2023-01-27T22:57:38.154Z,-1.88
2023-01-27T23:00:07.054Z,-2.10
2023-01-27T23:02:35.934Z,-2.19
2023-01-27T23:05:02.675Z,-1.97
2023-01-27T23:07:29.363Z,-2.04
2023-01-27T23:09:56.119Z,-2.05
2023-01-27T23:12:22.836Z,-2.10
2023-01-27T23:14:49.600Z,-2.07
2023-01-27T23:17:16.387Z,-1.97
2023-01-27T23:19:43.375Z,-1.90
2023-01-27T23:22:10.177Z,-1.94
2023-01-27T23:24:37.533Z,-2.09
2023-01-27T23:27:04.303Z,-1.95
2023-01-27T23:29:31.190Z,-2.05
2023-01-27T23:31:58.143Z,-1.99
2023-01-27T23:34:24.906Z,-1.89
2023-01-27T23:36:51.730Z,-2.03
2023-01-27T23:39:18.435Z,-2.05
2023-01-27T23:41:45.081Z,-1.85
2023-01-27T23:44:12.744Z,-1.86
2023-01-27T23:46:39.784Z,-1.99
2023-01-27T23:49:07.888Z,-1.86
2023-01-27T23:51:34.640Z,-1.99
2023-01-27T23:54:02.099Z,-2.09
2023-01-27T23:56:28.935Z,-2.18
2023-01-27T23:58:55.767Z,-1.87
